Last 48 Hours

Top Stn/Summit - 11,053ft

15 Minute Data | America/Los_Angeles
as of 9/5/26 12:48 PM PDT
Date & Time Temp (°F) WindChill (°F) RH (%) Dew Pt (°F) Wet Bulb (°F) Wind Dir (°) Wind Spd (mph) Wind Gust (mph) Wind Gst Dir (°) Daily Min Temp (°F) Daily Max Temp (°F) Daily Max Wind (mph)
9/5/26 - 1245 43.9 33.1 65 32.9 39.3 SW | 219 28.4 40.6 SW | 218 30.0 45.1 42.3
9/5/26 - 1230 43.7 32.9 64 32.2 38.9 SW | 221 28.0 40.4 NNE | 12 30.0 45.1 42.3
9/5/26 - 1215 44.6 33.8 61 31.8 39.2 SW | 217 30.3 42.3 SW | 225 30.0 45.1 42.3
9/5/26 - 1200 43.8 33.2 57 29.7 38.0 SW | 220 28.2 37.2 SSW | 209 30.0 44.3 42.2
9/5/26 - 1145 43.7 32.8 58 29.7 38.0 SW | 214 28.9 40.5 SSW | 212 30.0 44.2 42.2
9/5/26 - 1130 42.6 31.7 59 29.4 37.3 SW | 216 28.0 36.3 SW | 226 30.0 43.8 42.2
9/5/26 - 1115 42.3 31.5 57 28.3 36.7 SW | 216 25.9 35.2 SSW | 209 30.0 42.5 42.2
9/5/26 - 1100 41.8 30.8 58 28.1 36.4 SSW | 213 26.5 34.4 SSW | 212 30.0 42.2 42.2
9/5/26 - 1045 40.5 29.3 60 27.6 35.5 SSW | 213 25.3 32.7 SW | 220 30.0 41.2 42.2
9/5/26 - 1030 39.9 28.4 60 27.0 34.9 SW | 222 25.2 33.3 SW | 218 30.0 40.4 42.2
9/5/26 - 1015 38.8 26.8 61 26.5 34.1 SSW | 209 25.5 35.1 SSW | 212 30.0 39.2 42.2
9/5/26 - 1000 38.0 25.8 61 25.8 33.4 SW | 218 25.8 33.7 E | 81 30.0 38.6 42.2
9/5/26 - 0945 37.2 25.3 62 25.2 32.8 SW | 217 23.2 30.3 SW | 218 30.0 37.7 42.2
9/5/26 - 0930 36.5 24.2 63 25.0 32.3 SW | 231 24.5 30.7 SSW | 207 30.0 37.0 42.2
9/5/26 - 0915 35.6 22.7 64 24.8 31.7 WNW | 285 25.1 32.6 SSW | 212 30.0 35.9 42.2
9/5/26 - 0900 35.4 22.3 65 24.8 31.5 WNW | 297 26.0 33.2 N | 0 30.0 35.9 42.2
9/5/26 - 0845 34.9 21.3 66 24.7 31.2 NNW | 340 27.8 35.8 NE | 50 30.0 35.6 42.2
9/5/26 - 0830 34.7 21.0 65 24.2 30.9 ENE | 72 27.8 34.9 ENE | 63 30.0 35.1 42.2
9/5/26 - 0815 33.6 19.4 68 24.1 30.2 ENE | 72 27.6 36.2 E | 81 30.0 34.0 42.2
9/5/26 - 0800 33.7 19.7 68 24.3 30.4 ESE | 118 27.5 35.1 ENE | 63 30.0 34.0 42.2
9/5/26 - 0745 33.0 18.8 72 25.0 30.1 ESE | 122 27.5 34.4 ESE | 102 30.0 33.8 42.2
9/5/26 - 0730 31.9 17.2 77 25.4 29.5 ESE | 108 27.2 35.4 ESE | 117 30.0 33.8 42.2
9/5/26 - 0715 31.4 16.1 80 25.8 29.3 SE | 126 29.6 36.8 SW | 214 30.0 33.8 42.2
9/5/26 - 0700 30.6 15.0 83 26.1 28.9 ESE | 122 29.7 37.3 ENE | 66 30.0 33.8 42.2
9/5/26 - 0645 30.3 14.5 85 26.4 28.8 SE | 125 30.2 38.0 ESE | 111 30.0 33.8 42.2
9/5/26 - 0630 30.2 14.4 87 26.7 28.9 SE | 129 30.3 38.1 ESE | 110 30.0 33.8 42.2
9/5/26 - 0615 30.4 14.4 86 26.7 29.0 ESE | 123 30.2 39.7 ESE | 106 30.0 33.8 42.2
9/5/26 - 0600 30.4 14.6 88 27.2 29.1 ESE | 123 30.5 37.3 ESE | 109 30.0 33.8 42.2
9/5/26 - 0545 30.4 14.4 89 27.5 29.3 SE | 125 30.9 39.1 ESE | 109 30.0 33.8 42.2
9/5/26 - 0530 30.5 14.5 91 28.2 29.6 ESE | 123 31.9 40.0 ESE | 110 30.0 33.8 42.2
9/5/26 - 0515 30.2 14.2 98 29.8 29.9 ESE | 118 31.5 38.1 ESE | 108 30.0 33.8 42.2
9/5/26 - 0500 30.1 14.0 100 30.1 30.0 ESE | 110 32.2 38.9 ESE | 109 30.0 33.8 42.2
9/5/26 - 0445 30.1 14.4 100 30.1 30.0 ESE | 117 30.4 36.4 ESE | 109 30.0 33.8 42.2
9/5/26 - 0430 30.2 14.2 100 30.2 30.0 ESE | 109 30.9 38.5 ESE | 108 30.1 33.8 42.2
9/5/26 - 0415 30.2 14.2 100 30.2 30.1 ESE | 109 31.2 38.7 ESE | 109 30.2 33.8 42.2
9/5/26 - 0400 30.4 14.6 100 30.4 30.3 E | 97 30.4 37.4 ESE | 109 30.3 33.8 42.2
9/5/26 - 0345 30.4 14.9 100 30.4 30.3 NE | 41 29.1 36.0 N | 2 30.3 33.8 42.2
9/5/26 - 0330 30.8 15.2 100 30.8 30.7 NE | 52 29.8 37.4 NNE | 25 30.5 33.8 42.2
9/5/26 - 0315 31.4 15.8 100 31.4 31.3 NE | 53 31.8 38.7 NE | 34 31.1 33.8 42.2
9/5/26 - 0300 31.8 16.3 100 31.8 31.7 NNE | 24 31.7 38.8 N | 1 31.4 33.8 42.2
9/5/26 - 0245 32.3 17.1 100 32.3 32.2 NNE | 28 31.0 38.4 NNE | 15 32.0 33.8 42.2
9/5/26 - 0230 32.4 17.5 100 32.4 32.4 N | 11 30.0 36.9 NNE | 30 32.3 33.8 42.2
9/5/26 - 0215 32.6 17.3 100 32.6 32.5 N | 3 31.0 40.2 N | 2 32.4 33.8 42.2
9/5/26 - 0200 33.1 18.2 100 33.1 33.0 N | 1 30.0 38.9 N | 1 32.8 33.8 42.2
9/5/26 - 0145 33.5 18.9 100 33.5 33.5 N | 3 30.0 38.0 N | 1 33.1 33.8 42.2
9/5/26 - 0130 33.5 18.6 100 33.5 33.4 N | 1 30.8 40.1 N | 0 33.1 33.8 42.2
9/5/26 - 0115 33.3 18.1 100 33.3 33.3 N | 1 32.1 42.2 N | 1 33.1 33.5 42.2
9/5/26 - 0100 33.6 18.4 100 33.6 33.5 N | 1 32.1 42.9 N | 0 30.8 40.8 56.1
9/5/26 - 0045 33.5 18.2 100 33.5 33.5 N | 2 32.8 42.5 N | 0 30.8 40.8 56.1
9/5/26 - 0030 33.5 18.1 100 33.5 33.5 N | 0 34.2 43.5 N | 0 30.8 40.8 56.1
9/5/26 - 0015 33.5 18.0 100 33.5 33.5 N | 4 34.0 44.8 N | 3 30.8 40.8 56.1
9/5/26 - 0000 33.6 18.1 100 33.6 33.6 N | 0 34.3 44.3 N | 0 30.8 40.8 56.1
9/4/26 - 2345 33.7 18.2 100 33.7 33.6 N | 0 33.7 45.0 N | 0 30.8 40.8 56.1
9/4/26 - 2330 33.7 18.5 100 33.7 33.7 N | 4 33.2 43.1 N | 0 30.8 40.8 56.1
9/4/26 - 2315 33.7 18.4 100 33.7 33.7 N | 7 33.7 43.7 N | 0 30.8 40.8 56.1
9/4/26 - 2300 33.8 18.4 100 33.8 33.8 NNE | 21 34.6 44.6 N | 0 30.8 40.8 56.1
9/4/26 - 2245 33.9 18.7 100 33.9 33.9 N | 7 34.1 42.7 NE | 50 30.8 40.8 56.1
9/4/26 - 2230 34.1 18.7 100 34.1 34.0 N | 10 34.8 44.4 N | 0 30.8 40.8 56.1
9/4/26 - 2215 34.3 19.0 100 34.3 34.3 NNE | 17 35.6 44.4 NNE | 25 30.8 40.8 56.1
9/4/26 - 2200 34.4 18.8 100 34.4 34.4 N | 10 37.0 47.0 N | 9 30.8 40.8 56.1
9/4/26 - 2145 34.6 19.1 100 34.6 34.6 N | 4 36.7 48.1 N | 0 30.8 40.8 56.1
9/4/26 - 2130 35.0 19.9 100 35.0 35.0 N | 0 35.9 45.6 N | 0 30.8 40.8 56.1
9/4/26 - 2115 35.3 20.4 100 35.3 35.3 N | 6 34.0 45.6 N | 0 30.8 40.8 56.1
9/4/26 - 2100 35.4 20.4 100 35.4 35.5 N | 2 34.8 47.5 N | 0 30.8 40.8 56.1
9/4/26 - 2045 35.4 20.5 100 35.4 35.4 N | 9 34.0 46.5 N | 0 30.8 40.8 56.1
9/4/26 - 2030 35.6 20.9 100 35.6 35.6 N | 1 33.6 44.6 N | 0 30.8 40.8 56.1
9/4/26 - 2015 35.8 21.4 100 35.8 35.9 N | 2 32.2 45.1 N | 0 30.8 40.8 56.1
9/4/26 - 2000 36.1 22.0 100 36.1 36.2 N | 0 30.9 43.0 N | 0 30.8 40.8 56.1
9/4/26 - 1945 36.5 22.5 100 36.5 36.6 N | 5 31.0 43.7 N | 0 30.8 40.8 56.1
9/4/26 - 1930 36.5 22.3 100 36.5 36.6 N | 4 32.7 44.0 N | 0 30.8 40.8 56.1
9/4/26 - 1915 36.7 22.8 100 36.7 36.8 N | 4 32.2 42.6 N | 0 30.8 40.8 56.1
9/4/26 - 1900 37.0 23.3 100 37.0 37.1 N | 0 30.9 42.3 N | 0 30.8 40.8 56.1
9/4/26 - 1845 37.1 23.2 100 37.1 37.2 N | 2 31.3 44.6 N | 0 30.8 40.8 56.1
9/4/26 - 1830 37.2 23.4 100 37.2 37.3 N | 3 32.4 43.2 N | 0 30.8 40.8 56.1
9/4/26 - 1815 37.3 23.4 100 37.3 37.4 N | 4 33.1 45.3 N | 0 30.8 40.8 56.1
9/4/26 - 1800 37.3 23.4 100 37.3 37.4 W | 261 32.4 44.7 N | 0 30.8 40.8 56.1
9/4/26 - 1745 37.5 23.5 100 37.4 37.6 SW | 224 33.2 46.5 N | 0 30.8 40.8 56.1
9/4/26 - 1730 37.7 23.4 99 37.4 37.7 NNE | 23 35.7 48.7 N | 5 30.8 40.8 56.1
9/4/26 - 1715 37.9 24.2 98 37.4 37.8 SW | 218 32.6 46.4 E | 90 30.8 40.8 56.1
9/4/26 - 1700 38.4 24.8 97 37.5 38.1 SSW | 194 33.4 44.9 S | 182 30.8 40.8 56.1
9/4/26 - 1645 38.5 25.3 94 37.1 38.0 SW | 220 31.2 43.7 S | 184 30.8 40.8 56.1
9/4/26 - 1630 39.0 26.2 93 37.1 38.3 SW | 222 29.0 42.4 SW | 224 30.8 40.8 56.1
9/4/26 - 1615 39.4 26.1 92 37.2 38.6 SW | 220 33.7 46.8 N | 2 30.8 40.8 56.1
9/4/26 - 1600 39.2 26.0 92 37.0 38.4 SW | 228 33.8 44.8 SW | 226 30.8 40.8 56.1
9/4/26 - 1545 39.5 26.6 88 36.3 38.2 SSW | 200 30.4 44.6 SE | 131 30.8 40.8 56.1
9/4/26 - 1530 39.8 26.5 86 36.0 38.3 WSW | 252 34.4 48.0 N | 0 30.8 40.8 56.1
9/4/26 - 1515 40.1 27.4 84 35.7 38.3 SW | 228 29.6 45.8 SW | 218 30.8 40.8 56.1
9/4/26 - 1500 40.6 27.7 82 35.6 38.5 WSW | 247 34.9 45.9 N | 1 30.8 40.8 56.1
9/4/26 - 1445 40.3 27.0 83 35.5 38.4 WSW | 245 36.4 50.6 NNE | 17 30.8 40.8 56.1
9/4/26 - 1430 40.2 26.5 84 35.6 38.3 SW | 218 38.0 52.8 N | 0 30.8 40.8 56.1
9/4/26 - 1415 40.2 27.5 81 35.0 38.1 WSW | 242 28.2 48.3 ESE | 102 30.8 40.8 56.1
9/4/26 - 1400 40.2 26.8 80 34.5 37.8 NNW | 345 35.9 50.4 N | 0 30.8 40.8 56.1
9/4/26 - 1345 40.4 26.5 81 35.0 38.2 N | 11 39.5 55.9 N | 2 30.8 40.8 56.1
9/4/26 - 1330 40.0 26.4 82 35.1 38.0 SW | 235 37.4 51.8 N | 4 30.8 40.5 56.1
9/4/26 - 1315 39.7 26.4 83 35.0 37.8 NW | 317 34.7 48.0 E | 94 30.8 40.1 56.1
9/4/26 - 1300 39.7 25.9 85 35.6 38.0 N | 4 37.7 51.3 NNE | 12 30.8 40.0 56.1
9/4/26 - 1245 39.4 25.4 86 35.6 37.9 NNW | 332 38.8 52.5 N | 0 30.8 39.6 56.1
9/4/26 - 1230 39.1 25.2 86 35.4 37.6 SW | 217 37.6 50.4 N | 0 30.8 39.5 56.1
9/4/26 - 1215 38.8 24.8 86 35.0 37.2 SSW | 206 36.9 50.4 N | 0 30.8 39.3 56.1
9/4/26 - 1200 38.6 24.5 86 34.9 37.1 SW | 222 36.9 49.1 SSW | 202 30.8 39.2 56.1
9/4/26 - 1145 38.3 24.3 87 34.8 36.9 NNW | 335 35.7 48.6 N | 0 30.8 38.7 56.1
9/4/26 - 1130 37.6 23.1 91 35.2 36.6 SW | 227 35.4 50.9 N | 3 30.8 38.4 56.1
9/4/26 - 1115 36.3 21.5 100 36.3 36.4 SW | 227 35.5 48.2 SW | 227 30.8 37.0 56.1
9/4/26 - 1100 36.1 21.4 100 36.1 36.2 SW | 224 35.4 46.6 S | 177 30.8 36.5 56.1
9/4/26 - 1045 35.7 21.0 100 35.7 35.7 SW | 224 35.0 44.8 SW | 224 30.8 36.2 56.1
9/4/26 - 1030 34.9 19.7 100 34.9 34.9 SW | 223 36.2 45.5 SW | 215 30.8 35.2 56.1
9/4/26 - 1015 34.3 18.7 100 34.3 34.3 SW | 220 37.6 46.2 SW | 222 30.8 34.7 56.1
9/4/26 - 1000 33.8 17.6 100 33.8 33.8 SSW | 194 39.0 50.4 N | 2 30.8 34.0 56.1
9/4/26 - 0945 33.2 17.0 100 33.2 33.2 NNW | 340 38.2 48.1 N | 0 30.8 33.6 56.1
9/4/26 - 0930 32.5 15.9 100 32.5 32.4 ENE | 78 39.2 48.4 N | 0 30.8 32.9 56.1
9/4/26 - 0915 32.1 15.2 100 32.1 32.0 SE | 143 39.3 51.0 ENE | 69 30.8 32.3 56.1
9/4/26 - 0900 31.9 14.9 100 31.9 31.9 SW | 224 40.6 49.8 SSE | 164 30.8 32.1 56.1
9/4/26 - 0845 31.7 14.6 100 31.7 31.6 SW | 224 40.6 49.7 SW | 224 30.8 32.1 56.1
9/4/26 - 0830 31.5 14.4 100 31.5 31.5 SW | 224 40.2 49.3 SW | 226 30.8 32.1 56.1
9/4/26 - 0815 31.4 13.9 100 31.4 31.3 SW | 222 42.0 52.6 SW | 222 30.8 32.1 56.1
9/4/26 - 0800 31.4 14.0 100 31.4 31.3 SW | 222 41.6 51.1 SW | 224 30.8 32.1 56.1
9/4/26 - 0745 31.1 13.4 100 31.1 31.0 SW | 224 41.9 53.1 SW | 216 30.8 32.1 56.1
9/4/26 - 0730 31.1 13.6 100 31.1 31.0 SW | 220 40.2 51.9 SW | 228 30.8 32.1 56.1
9/4/26 - 0715 31.0 13.9 100 31.0 30.9 SW | 219 38.6 47.8 SW | 236 30.8 32.1 56.1
9/4/26 - 0700 31.0 13.7 100 31.0 31.0 SW | 220 39.8 49.8 SW | 227 30.8 32.1 56.1
9/4/26 - 0645 30.9 13.1 100 30.9 30.8 SW | 220 41.5 54.0 SW | 224 30.8 32.1 56.1
9/4/26 - 0630 30.9 13.2 100 30.9 30.8 SW | 222 41.6 52.4 SW | 228 30.8 32.1 56.1
9/4/26 - 0615 30.9 13.0 100 30.9 30.8 SW | 221 43.0 54.1 SW | 220 30.8 32.1 56.1
9/4/26 - 0600 31.0 13.4 100 31.0 30.9 SW | 222 41.6 51.1 SW | 218 30.8 32.1 56.1
9/4/26 - 0545 31.1 13.7 100 31.1 31.0 SW | 220 40.8 50.3 SSW | 213 30.9 32.1 56.1
9/4/26 - 0530 31.0 13.5 100 31.0 31.0 SW | 216 41.0 51.9 S | 182 31.0 32.1 56.1
9/4/26 - 0515 31.1 13.4 100 31.1 31.0 SW | 217 40.6 54.2 NNE | 24 31.0 32.1 56.1
9/4/26 - 0500 31.3 13.8 100 31.3 31.3 SW | 219 40.5 54.4 S | 190 31.1 32.1 56.1
9/4/26 - 0445 31.6 13.9 100 31.6 31.5 SW | 220 42.6 56.1 NNE | 30 31.3 32.1 56.1
9/4/26 - 0430 31.8 14.5 100 31.8 31.8 SW | 217 41.2 53.7 SSW | 194 31.3 32.1 53.9
9/4/26 - 0415 31.8 14.4 100 31.8 31.8 SW | 220 41.8 53.9 ESE | 118 31.3 32.1 53.9
9/4/26 - 0400 31.6 14.4 100 31.6 31.6 SW | 219 39.5 52.5 NNE | 17 31.3 32.1 52.5
9/4/26 - 0345 31.6 14.6 100 31.6 31.6 SW | 221 39.4 50.2 SW | 227 31.3 32.1 51.4
9/4/26 - 0330 31.6 14.6 100 31.6 31.5 SW | 220 38.5 49.6 SW | 224 31.3 32.1 51.4
9/4/26 - 0315 31.6 14.6 100 31.6 31.6 SW | 224 39.2 50.6 SW | 221 31.3 32.1 51.4
9/4/26 - 0300 31.7 14.8 100 31.7 31.6 SW | 223 38.1 49.4 SW | 228 31.3 32.1 51.4
9/4/26 - 0245 31.9 15.4 100 31.9 31.9 SW | 229 37.0 47.6 N | 1 31.3 32.1 51.4
9/4/26 - 0230 32.0 14.9 100 32.0 31.9 SW | 215 39.5 51.4 SW | 230 31.3 32.1 51.4
9/4/26 - 0215 31.9 14.9 100 31.9 31.8 SW | 222 38.2 51.2 SW | 227 31.3 32.0 51.2
9/4/26 - 0200 31.7 15.0 100 31.7 31.6 SW | 222 35.0 49.2 SW | 226 31.3 31.8 49.2
9/4/26 - 0145 31.6 15.3 100 31.6 31.5 SW | 223 33.5 45.0 SW | 224 31.3 31.7 46.3
9/4/26 - 0130 31.5 15.1 100 31.5 31.4 SW | 223 35.1 44.8 SW | 223 31.3 31.6 46.3
9/4/26 - 0115 31.4 15.0 100 31.4 31.4 SW | 221 33.8 46.3 SW | 224 31.3 31.6 46.3
9/4/26 - 0100 31.4 14.9 100 31.4 31.4 SW | 223 35.9 46.0 SW | 224 29.6 43.1 56.9
9/4/26 - 0045 31.5 15.0 100 31.5 31.4 SW | 223 34.9 46.2 WSW | 237 29.6 43.1 56.9
9/4/26 - 0030 31.4 15.0 100 31.4 31.3 SW | 221 33.9 45.7 SW | 227 29.6 43.1 56.9
9/4/26 - 0015 31.4 14.9 100 31.4 31.4 SW | 223 35.5 46.1 SW | 227 29.6 43.1 56.9
9/4/26 - 0000 31.5 14.9 100 31.5 31.4 SW | 224 37.2 46.0 SW | 229 29.6 43.1 56.9
9/3/26 - 2345 31.7 15.0 100 31.7 31.6 SW | 221 37.5 47.7 SW | 223 29.6 43.1 56.9
9/3/26 - 2330 31.6 15.0 100 31.6 31.6 SW | 221 36.2 47.6 SSW | 210 29.6 43.1 56.9
9/3/26 - 2315 31.8 15.3 100 31.8 31.7 SW | 221 33.6 48.3 SSW | 210 29.6 43.1 56.9
9/3/26 - 2300 31.5 14.9 100 31.5 31.5 SW | 220 35.7 47.7 SW | 227 29.6 43.1 56.9
9/3/26 - 2245 31.8 15.6 100 31.8 31.7 SW | 222 33.9 44.7 SW | 234 29.6 43.1 56.9
9/3/26 - 2230 32.3 16.3 100 32.3 32.2 SW | 220 33.4 45.5 WSW | 240 29.6 43.1 56.9
9/3/26 - 2215 32.7 16.9 100 32.7 32.6 SW | 220 33.4 44.4 SW | 219 29.6 43.1 56.9
9/3/26 - 2200 32.8 17.2 100 32.8 32.8 SW | 222 34.0 43.0 SW | 220 29.6 43.1 56.9
9/3/26 - 2145 32.9 17.4 100 32.9 32.9 SW | 222 32.7 43.4 SW | 218 29.6 43.1 56.9
9/3/26 - 2130 33.0 17.5 100 33.0 33.0 SW | 224 32.7 44.0 SW | 216 29.6 43.1 56.9
9/3/26 - 2115 33.2 17.7 100 33.2 33.2 SW | 223 33.5 44.7 SW | 225 29.6 43.1 56.9
9/3/26 - 2100 33.2 17.5 100 33.2 33.1 SW | 223 34.2 44.5 SW | 218 29.6 43.1 56.9
9/3/26 - 2045 33.3 17.8 100 33.3 33.3 SW | 224 34.4 44.2 SW | 220 29.6 43.1 56.9
9/3/26 - 2030 33.5 17.8 100 33.5 33.5 SW | 224 35.3 45.4 SW | 220 29.6 43.1 56.9
9/3/26 - 2015 33.6 17.7 100 33.5 33.5 SSW | 212 36.7 46.8 SSW | 198 29.6 43.1 56.9
9/3/26 - 2000 33.5 17.6 100 33.5 33.5 SSW | 204 36.5 47.8 SSW | 211 29.6 43.1 56.9
9/3/26 - 1945 33.7 17.8 99 33.5 33.6 SSE | 155 36.6 47.9 SSW | 198 29.6 43.1 56.9
9/3/26 - 1930 34.0 18.4 98 33.6 33.8 N | 5 35.2 48.0 N | 0 29.6 43.1 56.9
9/3/26 - 1915 34.6 19.5 98 34.0 34.4 N | 7 34.6 45.1 SW | 231 29.6 43.1 56.9
9/3/26 - 1900 35.0 19.8 97 34.3 34.7 SSW | 202 36.0 47.6 SW | 224 29.6 43.1 56.9
9/3/26 - 1845 35.7 20.4 94 34.2 35.1 SW | 225 37.6 49.5 E | 91 29.6 43.1 56.9
9/3/26 - 1830 36.6 21.9 91 34.2 35.7 SW | 219 36.7 48.8 SSW | 211 29.6 43.1 56.9
9/3/26 - 1815 37.3 22.9 88 34.2 36.1 SW | 219 35.7 48.7 SW | 214 29.6 43.1 56.9
9/3/26 - 1800 37.8 23.6 84 33.6 36.1 SSW | 208 36.7 48.3 SE | 141 29.6 43.1 56.9
9/3/26 - 1745 38.4 24.1 80 32.9 36.2 S | 170 38.6 51.5 ESE | 109 29.6 43.1 56.9
9/3/26 - 1730 39.2 25.2 76 32.3 36.4 SSW | 212 36.8 51.2 N | 0 29.6 43.1 56.9
9/3/26 - 1715 39.7 26.0 71 30.9 36.1 E | 100 37.3 50.7 NNE | 15 29.6 43.1 56.9
9/3/26 - 1700 40.0 26.6 68 30.4 36.1 S | 181 37.1 48.1 N | 3 29.6 43.1 56.9
9/3/26 - 1645 40.1 26.6 68 30.3 36.2 SW | 216 37.0 50.7 SSW | 202 29.6 43.1 56.9
9/3/26 - 1630 40.8 27.4 64 29.7 36.4 SSW | 194 38.8 52.8 SE | 137 29.6 43.1 56.9
9/3/26 - 1615 41.1 28.2 62 29.2 36.3 W | 267 34.5 49.0 NE | 49 29.6 43.1 56.9
9/3/26 - 1600 41.5 28.6 60 28.6 36.4 S | 189 37.1 48.9 WNW | 293 29.6 43.1 56.9
9/3/26 - 1545 42.0 29.4 60 29.0 36.8 SW | 226 35.8 49.0 N | 0 29.6 43.1 56.9
9/3/26 - 1530 42.6 30.4 59 29.2 37.2 SW | 222 34.0 47.3 SSE | 152 29.6 43.1 56.9
9/3/26 - 1515 42.5 30.4 57 28.4 36.9 SW | 225 34.6 46.3 SW | 236 29.6 43.1 56.9
9/3/26 - 1500 42.6 30.6 55 27.6 36.6 SW | 224 32.4 46.4 SW | 222 29.6 43.1 56.9
9/3/26 - 1445 42.8 31.2 54 27.5 36.7 SW | 225 28.7 45.2 SW | 224 29.6 43.1 56.9
9/3/26 - 1430 42.6 30.8 54 27.3 36.6 SW | 228 30.4 45.3 SSW | 212 29.6 43.1 56.9
9/3/26 - 1415 42.5 30.5 54 26.9 36.4 SW | 228 32.2 47.8 SW | 220 29.6 43.1 56.9
9/3/26 - 1400 42.5 30.5 53 26.7 36.3 SW | 226 30.9 47.7 SW | 227 29.6 43.1 56.9
9/3/26 - 1345 42.7 30.8 51 25.6 36.1 SW | 222 32.0 46.2 SSW | 202 29.6 43.1 56.9
9/3/26 - 1330 42.6 30.3 51 25.8 36.1 SW | 222 33.4 50.0 SW | 218 29.6 42.9 56.9
9/3/26 - 1315 42.4 30.3 52 25.8 35.9 SW | 224 33.8 46.0 SW | 225 29.6 42.9 56.9
9/3/26 - 1300 42.4 30.4 51 25.8 36.0 SW | 222 33.6 46.2 SW | 219 29.6 42.9 56.9
9/3/26 - 1245 42.1 29.9 52 25.8 35.8 SW | 222 34.0 45.8 SW | 228 29.6 42.7 56.9
Max 44.6 33.8 100 37.5 39.3 - 43.0 56.1 - 33.1 45.1 56.9
Avg 35.3 20.6 89 31.9 34.0 - 34.1 45.1 - - - -
Min 30.1 13.0 51 24.1 28.8 - 23.2 30.3 - 29.6 31.6 42.2